Aviation Forecast PDF Print E-mail

 met_logo

NATIONAL METEOROLOGICAL SERVICE OF BELIZE

Area Forecast for the Country of Belize


For the period from:

1200  23  OCTOBER  2014

to

2400  23  OCTOBER  2014

All Heights in the forecast are above sea level. PS= Positive, MS= Minus. All times are UTC.


A.

SPECIAL FEATURES of the METEOROLOGICAL SITUATION

VERY MOIST AND UNSTABLE CONDITIONS EXIST...

B.

HEIGHT (Ft)

WIND (True Degrees and Knots)

TEMPERATURE (°C)

Surface

27005

PS32-34

2,000

24010

PS22

5,000

21010

PS19

10,000

21010

PS10


C.

CLOUDS (Amount, Type, Ceiling and Top(optional))

 FEW/SCT CB BASES 1,000-1,500FT.; TOPS NEAR 30,000FT.

 SCT/BKN CU BASES 1,500-2,300FT. TOPS 9,000-11,000FT.

 SCT/BKN SC BASES LYRD BETWEEN 3,500-5,000FT. 

 

 

D.

SURFACE VISIBILITY:, REDUCED TO 2-5KM IN TSRA / SHRA/RA AND 500M IN HILL FOG.;OTHERWISE GREATER THAN 10KM. 


E.

WEATHER:  MOSTLY CLOUDY SKIES WITH GENERALLY ISOLATED SHOWERS THIS MORNING; SHOWERS, THUNDERSTORMS AND RAIN WILL INCREASE OVER THE NORTH AND INLAND AREAS THIS AFTERNOON. HILL FOG INLAND.

Remarks, Warnings, Turbulence

Barometric Changes

LOW CLOUDS COVERING HILLS

MOD TURB IN TCU/CB

RISING

G.

OUTLOOK:

TO 1200 24 OCT-

CLOUDY TO OVERCAST; SOME SHRA/PERIODS OF RAIN/ TSRA.

H.

TAF  MZBZ

230900Z 2312/2412 27005KT 9999 SCT020 BKN040 PROB30 2312/2314 0400 FG BKN004 TEMPO 2320/2412 3000 TSRA BKN010CB BKN035 =

I.

Meteorological Office:

BELIZE

Issued at:

1200 23 OCTOBER 2014

Forecaster:

Wellington